Terminal Aerodrome Forecast
Issued by NWS El Paso, TX

Home | Current Version | Previous Version | Text Only | Print | Product List | Glossary On
Versions: 1 2 3 4 5 6 7 8 9 10 11 12 13 14 15
000
FTUS44 KEPZ 221700
TAFELP
TAF
KELP 221720Z 2218/2318 12008KT P6SM SCT120 SCT250
     FM222100 11011G20KT P6SM VCTS SCT080CB SCT120 BKN250
     FM230600 10010KT P6SM FEW100 BKN250=

USA.gov is the U.S. government's official web portal to all federal, state and local government web resources and services.